EKKA

Karup Airport

Karup, Denmark
METAR EKKA 231550Z AUTO 04002KT 9999NDV BKN047/// BKN100/// 03/M03 Q1028
Observed Flight Rules
Feb-23 @ 15:50 UTC (43 minutes ago)
Wind Clouds
40° at 2 knots
  • Broken at 4,700' AGL
  • Broken at 10,000' AGL
Temperatures Readings
Current 3°C / 37°F
Dewpoint -3°C / 27°F
Humidity 65%
Altimeter 30.35" Hg
Pressure 1028 hPa
Elevation 52
METAR EKKA 231550Z AUTO 04002KT 9999NDV BKN047/// BKN100/// 03/M03 Q1028
Observed Flight Rules
Feb-23 @ 15:50 UTC
(43 minutes ago)
Wind
40° at 2 knots
Clouds
  • Broken at 4,700' AGL
  • Broken at 10,000' AGL
Temperature Dewpoint
3°C / 37°F -3°C / 27°F
Humidity Altimeter Pressure
65% 30.35" Hg 1028 hPa